Time;durP1;ratioP1;P1;durP2;ratioP2;P2;SDS_P1;SDS_P2;PMS_P1;PMS_P2;Temp;Humidity;BMP_temperature;BMP_pressure;BME280_temperature;BME280_humidity;BME280_pressure;Samples;Min_cycle;Max_cycle;Signal;HPM_P1;HPM_P2
2024/01/16 00:01:06;;;;;;;9.60;7.30;;;;;;;-0.84;100.00;97272.08;109309;1254;66035;-85
2024/01/16 00:03:46;;;;;;;11.00;6.80;;;;;;;-0.83;100.00;97269.39;109321;1254;59562;-84
2024/01/16 00:06:13;;;;;;;9.70;6.70;;;;;;;-0.82;100.00;97268.30;109340;1254;65086;-85
2024/01/16 00:08:39;;;;;;;11.30;7.40;;;;;;;-0.81;100.00;97274.36;109228;1254;59018;-84
2024/01/16 00:11:06;;;;;;;7.80;6.50;;;;;;;-0.80;100.00;97286.52;109058;1254;59030;-85
2024/01/16 00:13:33;;;;;;;9.00;6.60;;;;;;;-0.81;100.00;97292.48;109247;1254;66740;-84
2024/01/16 00:16:01;;;;;;;9.40;6.50;;;;;;;-0.82;100.00;97296.91;109498;1251;60127;-83
2024/01/16 00:18:28;;;;;;;8.50;6.80;;;;;;;-0.86;100.00;97299.87;109518;1251;64116;-84
2024/01/16 00:20:55;;;;;;;10.10;7.60;;;;;;;-0.91;100.00;97308.11;109543;1251;58960;-84
2024/01/16 00:23:22;;;;;;;8.40;6.10;;;;;;;-0.95;100.00;97311.64;109515;1251;58894;-84
2024/01/16 00:25:48;;;;;;;9.80;7.70;;;;;;;-0.98;100.00;97316.66;109528;1251;75638;-85
2024/01/16 00:28:15;;;;;;;10.10;7.50;;;;;;;-1.00;100.00;97314.65;109459;1251;61138;-83
2024/01/16 00:30:42;;;;;;;9.50;7.50;;;;;;;-1.03;100.00;97318.63;109488;1251;66031;-84
2024/01/16 00:33:09;;;;;;;10.30;7.60;;;;;;;-1.07;100.00;97323.70;109456;1251;59023;-82
2024/01/16 00:35:36;;;;;;;10.80;7.50;;;;;;;-1.11;100.00;97331.73;109475;1251;59058;-84
2024/01/16 00:38:02;;;;;;;8.20;6.90;;;;;;;-1.14;100.00;97329.95;109476;1251;67022;-84
2024/01/16 00:40:29;;;;;;;10.60;7.70;;;;;;;-1.17;100.00;97328.52;109507;1251;59997;-82
2024/01/16 00:42:55;;;;;;;9.90;8.10;;;;;;;-1.18;100.00;97332.10;109512;1251;65195;-84
2024/01/16 00:45:22;;;;;;;10.00;6.20;;;;;;;-1.20;100.00;97336.50;109610;1251;58910;-84
2024/01/16 00:47:49;;;;;;;10.40;9.10;;;;;;;-1.21;100.00;97338.64;108942;1251;1002445;-83
2024/01/16 00:50:15;;;;;;;10.40;8.30;;;;;;;-1.21;100.00;97338.64;109517;1251;67027;-85
2024/01/16 00:52:42;;;;;;;10.70;8.20;;;;;;;-1.22;100.00;97336.75;109581;1251;61220;-85
2024/01/16 00:55:09;;;;;;;13.30;8.10;;;;;;;-1.22;100.00;97340.44;109488;1251;64720;-84
2024/01/16 00:57:35;;;;;;;9.50;7.90;;;;;;;-1.23;100.00;97348.48;109604;1251;59010;-84
2024/01/16 01:00:03;;;;;;;12.10;8.30;;;;;;;-1.23;100.00;97348.52;109607;1251;58956;-84
2024/01/16 01:02:30;;;;;;;7.80;7.00;;;;;;;-1.24;100.00;97344.70;109496;1254;64598;-84
2024/01/16 01:04:57;;;;;;;9.00;8.00;;;;;;;-1.24;100.00;97345.06;109499;1253;60261;-83
2024/01/16 01:07:25;;;;;;;10.50;7.30;;;;;;;-1.24;100.00;97352.55;109390;1253;64237;-85
2024/01/16 01:09:51;;;;;;;12.70;8.20;;;;;;;-1.23;100.00;97351.15;107650;1253;1002477;-84
2024/01/16 01:12:18;;;;;;;11.50;8.90;;;;;;;-1.22;100.00;97350.71;108655;1254;1002296;-84
2024/01/16 01:14:45;;;;;;;12.00;8.30;;;;;;;-1.20;100.00;97353.59;109431;1253;66039;-83
2024/01/16 01:17:11;;;;;;;9.30;7.10;;;;;;;-1.19;100.00;97350.76;109175;1253;61226;-85
2024/01/16 01:19:38;;;;;;;9.50;7.40;;;;;;;-1.18;100.00;97352.61;109136;1253;64424;-88
2024/01/16 01:22:05;;;;;;;9.90;7.50;;;;;;;-1.16;100.00;97359.17;109442;1253;59298;-83
2024/01/16 01:24:31;;;;;;;11.90;8.90;;;;;;;-1.14;100.00;97358.70;109475;1253;59129;-84
2024/01/16 01:26:58;;;;;;;10.30;7.60;;;;;;;-1.11;100.00;97359.11;109452;1253;64809;-85
2024/01/16 01:29:25;;;;;;;10.50;7.10;;;;;;;-1.08;100.00;97361.21;109479;1252;59056;-85
2024/01/16 01:31:51;;;;;;;7.60;6.70;;;;;;;-1.04;100.00;97365.20;109396;1253;64067;-83
2024/01/16 01:34:18;;;;;;;9.10;7.30;;;;;;;-1.03;100.00;97365.88;109421;1253;59256;-84
2024/01/16 01:36:44;;;;;;;9.10;7.40;;;;;;;-1.04;100.00;97362.27;109428;1253;58915;-85
2024/01/16 01:39:11;;;;;;;10.10;7.20;;;;;;;-1.04;100.00;97364.51;108647;1253;1002805;-83
2024/01/16 01:41:38;;;;;;;10.90;7.90;;;;;;;-1.02;100.00;97367.77;109554;1251;60074;-85
2024/01/16 01:44:05;;;;;;;8.30;7.50;;;;;;;-1.00;100.00;97365.38;109529;1251;65032;-85
2024/01/16 01:46:34;;;;;;;9.90;7.30;;;;;;;-0.98;100.00;97363.70;109529;1251;59037;-85
2024/01/16 01:49:02;;;;;;;9.40;7.10;;;;;;;-0.97;100.00;97356.02;108880;1251;1002706;-86
2024/01/16 01:51:29;;;;;;;8.30;6.90;;;;;;;-0.98;100.00;97358.34;109507;1251;66048;-83
2024/01/16 01:53:58;;;;;;;9.60;7.80;;;;;;;-1.02;100.00;97357.80;109620;1251;59363;-85
2024/01/16 01:56:27;;;;;;;8.80;7.00;;;;;;;-1.06;100.00;97361.64;109577;1251;62502;-85
2024/01/16 01:58:56;;;;;;;8.40;7.50;;;;;;;-1.11;100.00;97362.21;109541;1251;59263;-85
2024/01/16 02:01:25;;;;;;;9.60;7.70;;;;;;;-1.16;100.00;97366.64;109617;1251;58950;-85
2024/01/16 02:03:54;;;;;;;9.00;7.10;;;;;;;-1.20;100.00;97372.21;109680;1251;75856;-85
2024/01/16 02:06:20;;;;;;;7.80;7.00;;;;;;;-1.23;100.00;97378.80;109690;1251;60865;-85
2024/01/16 02:08:47;;;;;;;8.50;7.30;;;;;;;-1.25;100.00;97381.89;109645;1251;65024;-85
2024/01/16 02:11:14;;;;;;;11.10;6.70;;;;;;;-1.27;100.00;97377.61;109644;1251;58947;-86
2024/01/16 02:13:41;;;;;;;9.00;7.50;;;;;;;-1.26;100.00;97379.33;109653;1251;59017;-85
2024/01/16 02:16:18;;;;;;;9.00;6.50;;;;;;;-1.25;100.00;97382.73;109446;1251;66035;-84
2024/01/16 02:18:46;;;;;;;7.90;6.90;;;;;;;-1.25;100.00;97382.04;109673;1251;60007;-84
2024/01/16 02:21:17;;;;;;;8.00;6.60;;;;;;;-1.26;100.00;97378.08;109618;1251;63990;-84
2024/01/16 02:23:44;;;;;;;8.60;7.10;;;;;;;-1.28;100.00;97374.52;109626;1251;58985;-84
2024/01/16 02:26:10;;;;;;;7.20;5.50;;;;;;;-1.30;100.00;97378.79;109613;1251;59083;-85
2024/01/16 02:28:37;;;;;;;8.40;5.90;;;;;;;-1.30;100.00;97379.83;109642;1251;66977;-84
2024/01/16 02:31:03;;;;;;;7.50;6.40;;;;;;;-1.30;100.00;97386.09;109524;1251;60035;-84
2024/01/16 02:33:30;;;;;;;6.90;5.60;;;;;;;-1.29;100.00;97388.33;109605;1251;64111;-84
2024/01/16 02:35:57;;;;;;;8.40;6.30;;;;;;;-1.26;100.00;97391.17;109610;1251;58988;-85
2024/01/16 02:38:23;;;;;;;6.30;5.50;;;;;;;-1.24;100.00;97393.33;109601;1251;59125;-83
2024/01/16 02:40:50;;;;;;;6.60;5.90;;;;;;;-1.25;100.00;97393.90;109653;1251;64380;-85
2024/01/16 02:43:17;;;;;;;8.20;6.80;;;;;;;-1.27;100.00;97396.97;109617;1251;61518;-82
2024/01/16 02:45:44;;;;;;;7.90;6.30;;;;;;;-1.28;100.00;97400.49;109589;1251;65300;-84
2024/01/16 02:48:11;;;;;;;9.10;6.60;;;;;;;-1.30;100.00;97398.66;109615;1251;59067;-85
2024/01/16 02:50:38;;;;;;;8.10;5.50;;;;;;;-1.32;100.00;97398.06;109597;1251;59002;-84
2024/01/16 02:53:05;;;;;;;8.60;6.90;;;;;;;-1.33;100.00;97402.09;109624;1251;64758;-83
2024/01/16 02:55:31;;;;;;;7.80;7.00;;;;;;;-1.32;100.00;97404.15;109436;1251;59065;-84
2024/01/16 02:57:58;;;;;;;9.50;7.00;;;;;;;-1.30;100.00;97404.23;109553;1251;64144;-85
2024/01/16 03:00:37;;;;;;;7.40;6.30;;;;;;;-1.30;100.00;97402.68;109594;1251;58944;-83
2024/01/16 03:03:04;;;;;;;8.90;7.10;;;;;;;-1.33;100.00;97399.46;109713;1251;58956;-85
2024/01/16 03:05:31;;;;;;;8.80;6.60;;;;;;;-1.35;100.00;97402.70;109572;1251;66776;-82
2024/01/16 03:07:58;;;;;;;9.00;7.00;;;;;;;-1.37;100.00;97404.35;109650;1251;59071;-84
2024/01/16 03:10:24;;;;;;;7.80;5.90;;;;;;;-1.38;100.00;97408.73;109478;1254;62749;-84
2024/01/16 03:12:51;;;;;;;9.50;7.20;;;;;;;-1.39;100.00;97407.74;109576;1251;59028;-85
2024/01/16 03:15:18;;;;;;;8.10;7.30;;;;;;;-1.40;100.00;97410.95;109612;1251;58861;-84
2024/01/16 03:17:45;;;;;;;8.50;6.50;;;;;;;-1.40;100.00;97412.67;109548;1251;64862;-84
2024/01/16 03:20:12;;;;;;;9.40;7.00;;;;;;;-1.38;100.00;97412.42;109367;1251;69848;-84
2024/01/16 03:22:39;;;;;;;11.90;7.60;;;;;;;-1.35;100.00;97416.11;109580;1251;64124;-83
2024/01/16 03:25:07;;;;;;;10.80;7.80;;;;;;;-1.30;100.00;97413.11;109522;1251;58912;-84
2024/01/16 03:27:33;;;;;;;10.50;7.50;;;;;;;-1.25;100.00;97416.39;109400;1251;58972;-83
2024/01/16 03:30:02;;;;;;;7.10;5.80;;;;;;;-1.20;100.00;97416.67;109598;1251;66081;-82
2024/01/16 03:32:29;;;;;;;7.90;6.20;;;;;;;-1.15;100.00;97413.33;108597;1255;1002901;-83
2024/01/16 03:34:56;;;;;;;6.70;5.80;;;;;;;-1.09;100.00;97416.38;108977;1256;64656;-84
2024/01/16 03:37:22;;;;;;;5.90;5.20;;;;;;;-1.06;100.00;97418.30;109280;1256;59192;-83
2024/01/16 03:39:50;;;;;;;5.90;5.20;;;;;;;-1.02;100.00;97417.06;109009;1256;59350;-84
2024/01/16 03:42:16;;;;;;;6.50;5.80;;;;;;;-0.97;100.00;97417.39;109324;1256;67339;-83
2024/01/16 03:44:43;;;;;;;5.90;5.10;;;;;;;-0.94;100.00;97415.67;109310;1255;60321;-83
2024/01/16 03:47:09;;;;;;;6.00;5.40;;;;;;;-0.92;100.00;97417.64;109308;1255;65106;-84
2024/01/16 03:49:36;;;;;;;6.30;5.50;;;;;;;-0.90;100.00;97424.68;109309;1255;59090;-83
2024/01/16 03:52:03;;;;;;;9.10;5.20;;;;;;;-0.87;100.00;97430.84;109311;1255;58918;-83
2024/01/16 03:54:29;;;;;;;6.00;5.40;;;;;;;-0.82;100.00;97437.95;109303;1256;66182;-83
2024/01/16 03:56:56;;;;;;;5.70;5.10;;;;;;;-0.79;100.00;97443.03;109255;1256;60122;-82
2024/01/16 03:59:23;;;;;;;8.40;5.70;;;;;;;-0.75;100.00;97445.31;109273;1255;64305;-84
2024/01/16 04:01:50;;;;;;;7.90;6.10;;;;;;;-0.74;100.00;97446.81;109102;1256;59447;-85
2024/01/16 04:04:16;;;;;;;8.10;5.70;;;;;;;-0.75;100.00;97450.52;109434;1251;58967;-84
2024/01/16 04:06:43;;;;;;;7.10;6.20;;;;;;;-0.77;100.00;97454.44;108805;1251;1002310;-84
2024/01/16 04:09:10;;;;;;;8.40;6.20;;;;;;;-0.78;100.00;97459.72;109543;1251;70074;-83
2024/01/16 04:11:37;;;;;;;8.50;6.80;;;;;;;-0.78;100.00;97459.40;109515;1251;65330;-83
2024/01/16 04:14:03;;;;;;;11.10;7.40;;;;;;;-0.80;100.00;97467.64;109520;1251;58957;-85
2024/01/16 04:16:30;;;;;;;7.50;5.20;;;;;;;-0.79;100.00;97471.30;109407;1251;61295;-83
2024/01/16 04:18:57;;;;;;;6.50;5.80;;;;;;;-0.79;100.00;97478.25;109519;1251;67238;-83
2024/01/16 04:21:23;;;;;;;6.20;5.10;;;;;;;-0.78;100.00;97490.92;108767;1251;1002467;-82
2024/01/16 04:23:50;;;;;;;7.50;6.30;;;;;;;-0.77;100.00;97495.23;109536;1251;64003;-85
2024/01/16 04:26:16;;;;;;;8.40;6.40;;;;;;;-0.75;100.00;97499.36;109519;1251;59224;-83
2024/01/16 04:28:43;;;;;;;8.30;5.70;;;;;;;-0.74;100.00;97509.25;109585;1251;58858;-83
2024/01/16 04:31:11;;;;;;;7.40;6.50;;;;;;;-0.75;100.00;97509.12;109548;1251;65780;-84
2024/01/16 04:33:38;;;;;;;7.90;6.70;;;;;;;-0.80;100.00;97504.96;109572;1251;59751;-84
2024/01/16 04:36:06;;;;;;;7.20;5.80;;;;;;;-0.88;100.00;97511.83;109545;1251;62917;-84
2024/01/16 04:38:33;;;;;;;11.10;7.10;;;;;;;-0.99;100.00;97511.41;109182;1251;59018;-83
2024/01/16 04:41:03;;;;;;;8.20;6.80;;;;;;;-1.06;100.00;97518.86;109561;1251;59051;-83
2024/01/16 04:43:30;;;;;;;8.00;6.60;;;;;;;-1.09;100.00;97525.09;109553;1251;65659;-83
2024/01/16 04:45:56;;;;;;;8.40;6.90;;;;;;;-1.10;100.00;97532.64;108803;1251;1002323;-84
2024/01/16 04:48:23;;;;;;;8.20;7.10;;;;;;;-1.09;100.00;97533.31;109528;1251;65024;-83
2024/01/16 04:50:50;;;;;;;8.30;7.00;;;;;;;-1.07;100.00;97537.56;109531;1251;59021;-83
2024/01/16 04:53:17;;;;;;;7.40;6.70;;;;;;;-1.05;100.00;97542.00;109551;1251;58911;-83
2024/01/16 04:55:44;;;;;;;7.40;6.00;;;;;;;-1.02;100.00;97549.70;109251;1251;66157;-84
2024/01/16 04:58:10;;;;;;;8.60;6.50;;;;;;;-0.99;100.00;97552.90;109526;1251;61062;-84
2024/01/16 05:00:37;;;;;;;7.90;6.80;;;;;;;-0.97;100.00;97553.67;109357;1251;63882;-84
2024/01/16 05:03:05;;;;;;;6.00;5.30;;;;;;;-0.96;100.00;97555.21;109555;1251;58935;-82
2024/01/16 05:05:32;;;;;;;7.70;6.00;;;;;;;-0.97;100.00;97556.13;109598;1251;58957;-82
2024/01/16 05:08:02;;;;;;;10.00;7.40;;;;;;;-1.00;100.00;97560.09;109473;1251;67262;-84
2024/01/16 05:10:28;;;;;;;8.60;6.20;;;;;;;-1.07;100.00;97566.31;109529;1251;59804;-82
2024/01/16 05:12:56;;;;;;;11.00;7.30;;;;;;;-1.13;100.00;97566.75;109506;1251;63773;-83
2024/01/16 05:15:22;;;;;;;10.40;7.10;;;;;;;-1.17;100.00;97564.80;109451;1251;59492;-84
2024/01/16 05:17:49;;;;;;;8.70;7.70;;;;;;;-1.18;100.00;97569.58;109538;1251;58979;-83
2024/01/16 05:20:16;;;;;;;9.80;7.10;;;;;;;-1.19;100.00;97574.14;109511;1251;67222;-84
2024/01/16 05:22:42;;;;;;;8.50;6.30;;;;;;;-1.18;100.00;97574.11;109447;1251;60067;-83
2024/01/16 05:25:09;;;;;;;9.00;6.50;;;;;;;-1.15;100.00;97574.16;109493;1251;64093;-83
2024/01/16 05:27:35;;;;;;;8.10;6.10;;;;;;;-1.12;100.00;97575.08;109489;1251;58972;-84
2024/01/16 05:30:03;;;;;;;8.00;6.20;;;;;;;-1.11;100.00;97570.30;109487;1251;59027;-83
2024/01/16 05:32:29;;;;;;;7.30;5.90;;;;;;;-1.11;100.00;97567.70;109482;1251;75394;-83
2024/01/16 05:34:56;;;;;;;7.40;6.40;;;;;;;-1.09;100.00;97577.54;109251;1251;61031;-83
2024/01/16 05:37:22;;;;;;;10.60;7.90;;;;;;;-1.06;100.00;97588.05;109489;1251;65238;-84
2024/01/16 05:39:49;;;;;;;10.80;7.30;;;;;;;-1.02;100.00;97604.45;109499;1251;58925;-82
2024/01/16 05:42:16;;;;;;;8.30;6.40;;;;;;;-0.98;100.00;97614.92;109531;1251;59146;-83
2024/01/16 05:44:43;;;;;;;9.50;7.90;;;;;;;-0.96;100.00;97619.00;109514;1251;67024;-83
2024/01/16 05:47:10;;;;;;;10.40;7.20;;;;;;;-0.97;100.00;97625.84;109497;1251;60286;-83
2024/01/16 05:49:37;;;;;;;12.90;10.50;;;;;;;-1.00;100.00;97625.83;109510;1251;65279;-84
2024/01/16 05:52:04;;;;;;;12.00;8.40;;;;;;;-1.05;100.00;97625.69;109529;1251;59287;-84
2024/01/16 05:54:30;;;;;;;10.50;8.50;;;;;;;-1.11;100.00;97624.86;109562;1251;58944;-82
2024/01/16 05:56:57;;;;;;;13.60;10.40;;;;;;;-1.15;100.00;97628.34;109473;1251;66073;-83
2024/01/16 05:59:23;;;;;;;12.30;10.00;;;;;;;-1.16;100.00;97635.36;109463;1251;61020;-83
2024/01/16 06:01:50;;;;;;;12.40;8.70;;;;;;;-1.17;100.00;97640.27;109537;1251;64130;-85
2024/01/16 06:04:17;;;;;;;11.90;8.30;;;;;;;-1.18;100.00;97647.64;109426;1251;58898;-82
2024/01/16 06:06:45;;;;;;;10.00;7.70;;;;;;;-1.20;100.00;97652.07;109570;1251;59316;-83
2024/01/16 06:09:13;;;;;;;8.90;7.60;;;;;;;-1.21;100.00;97654.92;108710;1251;1002331;-83
2024/01/16 06:11:43;;;;;;;10.60;8.90;;;;;;;-1.23;100.00;97655.69;109511;1251;60952;-82
2024/01/16 06:14:11;;;;;;;8.70;7.40;;;;;;;-1.24;100.00;97654.70;109355;1251;62583;-83
2024/01/16 06:16:38;;;;;;;13.30;9.60;;;;;;;-1.26;100.00;97656.33;109502;1251;58954;-83
2024/01/16 06:19:05;;;;;;;13.60;9.60;;;;;;;-1.26;100.00;97654.44;109485;1251;58994;-81
2024/01/16 06:21:31;;;;;;;11.50;9.10;;;;;;;-1.27;100.00;97664.77;109548;1251;65903;-83
2024/01/16 06:23:58;;;;;;;11.30;9.20;;;;;;;-1.29;100.00;97671.60;109295;1251;60276;-82
2024/01/16 06:26:24;;;;;;;11.50;8.60;;;;;;;-1.30;100.00;97675.52;109284;1251;73307;-83
2024/01/16 06:28:51;;;;;;;11.00;8.90;;;;;;;-1.33;100.00;97679.78;109521;1251;58926;-83
2024/01/16 06:31:18;;;;;;;11.10;9.80;;;;;;;-1.36;100.00;97684.59;109501;1251;58933;-83
2024/01/16 06:33:44;;;;;;;12.80;8.70;;;;;;;-1.37;100.00;97687.98;109453;1251;75779;-83
2024/01/16 06:36:11;;;;;;;12.40;9.70;;;;;;;-1.38;100.00;97690.77;109516;1251;69014;-83
2024/01/16 06:38:39;;;;;;;14.70;10.30;;;;;;;-1.37;100.00;97693.73;109369;1251;62907;-83
2024/01/16 06:41:06;;;;;;;12.60;9.00;;;;;;;-1.36;100.00;97690.52;109535;1251;59090;-83
2024/01/16 06:43:33;;;;;;;12.60;9.20;;;;;;;-1.33;100.00;97693.36;109505;1251;58878;-84
2024/01/16 06:45:59;;;;;;;10.90;8.60;;;;;;;-1.30;100.00;97693.62;109500;1251;67168;-81
2024/01/16 06:48:26;;;;;;;8.80;6.90;;;;;;;-1.27;100.00;97695.75;108787;1251;1002544;-81
2024/01/16 06:50:53;;;;;;;11.00;8.00;;;;;;;-1.23;100.00;97702.41;109449;1251;64803;-83
2024/01/16 06:53:20;;;;;;;9.10;7.20;;;;;;;-1.20;100.00;97708.23;109489;1251;59038;-83
2024/01/16 06:55:46;;;;;;;8.10;7.10;;;;;;;-1.19;100.00;97712.48;109528;1251;59017;-83
2024/01/16 06:58:13;;;;;;;8.80;7.90;;;;;;;-1.17;100.00;97709.27;109475;1251;67043;-83
2024/01/16 07:00:41;;;;;;;9.40;7.30;;;;;;;-1.13;100.00;97709.99;109534;1251;61075;-81
2024/01/16 07:03:08;;;;;;;10.60;7.10;;;;;;;-1.07;100.00;97715.86;109471;1251;64891;-80
2024/01/16 07:05:34;;;;;;;7.50;6.70;;;;;;;-1.02;100.00;97721.93;109449;1251;59307;-78
2024/01/16 07:08:01;;;;;;;9.10;7.50;;;;;;;-0.99;100.00;97721.30;109511;1251;59030;-78
2024/01/16 07:10:27;;;;;;;9.30;7.40;;;;;;;-1.00;100.00;97726.04;109266;1251;66229;-76
2024/01/16 07:12:55;;;;;;;9.50;7.30;;;;;;;-1.00;100.00;97726.54;109452;1251;60163;-75
2024/01/16 07:15:21;;;;;;;10.80;7.70;;;;;;;-0.98;100.00;97726.29;109452;1251;64195;-76
2024/01/16 07:17:48;;;;;;;8.80;7.50;;;;;;;-0.96;100.00;97720.98;109376;1251;59028;-75
2024/01/16 07:20:15;;;;;;;9.60;6.90;;;;;;;-0.92;100.00;97724.85;109546;1251;59048;-80
2024/01/16 07:22:41;;;;;;;9.30;7.70;;;;;;;-0.91;100.00;97731.73;109499;1251;66746;-77
2024/01/16 07:25:08;;;;;;;10.80;8.20;;;;;;;-0.90;100.00;97740.95;109499;1251;60028;-80
2024/01/16 07:27:35;;;;;;;14.80;8.30;;;;;;;-0.89;100.00;97742.66;109477;1251;65066;-79
2024/01/16 07:30:04;;;;;;;11.20;8.00;;;;;;;-0.88;100.00;97752.56;109486;1251;59068;-78
2024/01/16 07:32:31;;;;;;;11.90;7.90;;;;;;;-0.84;100.00;97758.01;109387;1253;59141;-77
2024/01/16 07:34:59;;;;;;;12.20;8.00;;;;;;;-0.79;100.00;97762.69;109383;1253;66129;-77
2024/01/16 07:37:25;;;;;;;9.90;7.00;;;;;;;-0.71;100.00;97767.90;109404;1252;60318;-77
2024/01/16 07:39:52;;;;;;;11.60;6.70;;;;;;;-0.62;100.00;97770.69;109401;1253;65171;-76
2024/01/16 07:42:18;;;;;;;9.30;6.50;;;;;;;-0.55;100.00;97782.07;109389;1254;59560;-77
2024/01/16 07:44:45;;;;;;;8.70;6.10;;;;;;;-0.45;100.00;97788.27;109297;1255;59237;-75
2024/01/16 07:47:12;;;;;;;10.00;5.90;;;;;;;-0.26;100.00;97791.84;109415;1253;65961;-76
2024/01/16 07:49:38;;;;;;;7.70;4.70;;;;;;;-0.05;100.00;97793.20;109387;1253;60241;-76
2024/01/16 07:52:05;;;;;;;8.70;5.20;;;;;;;0.04;100.00;97801.18;109407;1253;65213;-75
2024/01/16 07:54:32;;;;;;;7.10;4.70;;;;;;;-0.02;100.00;97800.43;109332;1253;59035;-78
2024/01/16 07:56:59;;;;;;;9.40;5.50;;;;;;;-0.11;100.00;97802.21;109435;1253;58988;-76
2024/01/16 07:59:26;;;;;;;9.20;5.80;;;;;;;-0.14;100.00;97805.63;109437;1253;67219;-76
2024/01/16 08:01:53;;;;;;;10.50;5.40;;;;;;;-0.12;100.00;97809.38;109411;1255;60080;-77
2024/01/16 08:04:20;;;;;;;8.60;5.40;;;;;;;-0.10;100.00;97817.15;109494;1251;64989;-75
2024/01/16 08:06:48;;;;;;;5.90;4.20;;;;;;;-0.10;100.00;97819.07;109512;1251;59007;-76
2024/01/16 08:09:14;;;;;;;6.40;4.30;;;;;;;-0.08;100.00;97821.11;109485;1251;59049;-76
2024/01/16 08:11:41;;;;;;;8.70;5.70;;;;;;;-0.05;100.00;97823.57;109487;1251;66121;-75
2024/01/16 08:14:08;;;;;;;11.20;5.70;;;;;;;-0.00;100.00;97824.79;109483;1251;60298;-76
2024/01/16 08:16:34;;;;;;;7.80;5.00;;;;;;;0.07;100.00;97825.87;109499;1251;65258;-76
2024/01/16 08:19:03;;;;;;;8.00;5.80;;;;;;;0.27;100.00;97833.88;109340;1255;58979;-76
2024/01/16 08:21:29;;;;;;;7.80;5.20;;;;;;;0.59;100.00;97834.39;109537;1251;58878;-77
2024/01/16 08:23:56;;;;;;;6.80;5.30;;;;;;;0.81;100.00;97842.80;109510;1251;66973;-76
2024/01/16 08:26:23;;;;;;;7.30;4.60;;;;;;;0.85;100.00;97839.31;109512;1251;60124;-74
2024/01/16 08:28:50;;;;;;;8.30;4.90;;;;;;;0.84;100.00;97847.23;109483;1251;64025;-76
2024/01/16 08:31:21;;;;;;;8.50;5.50;;;;;;;0.80;100.00;97852.66;109509;1251;58959;-76
2024/01/16 08:33:47;;;;;;;8.20;5.50;;;;;;;0.75;100.00;97860.05;109480;1253;58984;-79
2024/01/16 08:36:15;;;;;;;7.30;4.80;;;;;;;0.71;100.00;97859.36;109536;1251;66933;-76
2024/01/16 08:38:41;;;;;;;7.30;4.70;;;;;;;0.71;100.00;97863.75;109488;1251;59937;-78
2024/01/16 08:41:08;;;;;;;7.30;4.40;;;;;;;0.71;100.00;97870.05;109399;1253;64018;-75
2024/01/16 08:43:35;;;;;;;7.60;4.40;;;;;;;0.74;100.00;97873.40;109479;1251;58978;-75
2024/01/16 08:46:02;;;;;;;8.40;4.90;;;;;;;0.85;100.00;97876.39;109476;1251;58964;-80
2024/01/16 08:48:28;;;;;;;7.70;4.40;;;;;;;0.98;100.00;97879.80;109528;1251;65984;-80
2024/01/16 08:50:55;;;;;;;9.30;4.70;;;;;;;1.08;100.00;97882.85;109531;1251;61044;-79
2024/01/16 08:53:23;;;;;;;9.00;5.30;;;;;;;1.14;100.00;97886.95;109541;1251;63716;-80
2024/01/16 08:55:49;;;;;;;7.40;4.30;;;;;;;1.16;100.00;97890.36;109509;1251;59313;-79
2024/01/16 08:58:16;;;;;;;5.20;3.60;;;;;;;1.18;100.00;97891.47;109482;1251;59037;-80
2024/01/16 09:00:43;;;;;;;6.50;4.00;;;;;;;1.16;100.00;97896.98;109506;1252;65642;-78
2024/01/16 09:03:11;;;;;;;4.90;4.10;;;;;;;1.16;100.00;97903.14;109518;1251;60788;-78
2024/01/16 09:05:39;;;;;;;6.00;4.10;;;;;;;1.11;100.00;97903.51;109515;1252;65277;-78
2024/01/16 09:08:05;;;;;;;7.10;4.10;;;;;;;1.09;100.00;97902.92;109458;1251;59352;-81
2024/01/16 09:10:32;;;;;;;7.70;4.90;;;;;;;1.09;100.00;97903.61;109517;1251;58904;-78
2024/01/16 09:12:59;;;;;;;7.40;4.40;;;;;;;1.09;100.00;97905.20;109501;1251;66111;-78
2024/01/16 09:15:25;;;;;;;7.60;4.30;;;;;;;1.08;100.00;97904.00;109528;1251;59734;-80
2024/01/16 09:17:52;;;;;;;6.80;4.40;;;;;;;1.05;100.00;97903.64;109369;1253;65218;-78
2024/01/16 09:20:19;;;;;;;6.10;4.30;;;;;;;1.10;100.00;97897.93;109498;1251;58967;-79
2024/01/16 09:22:45;;;;;;;7.50;4.50;;;;;;;1.41;100.00;97895.28;106444;1251;1015092;-78
2024/01/16 09:25:12;;;;;;;6.00;4.20;;;;;;;1.68;100.00;97896.80;109519;1251;59004;-80
2024/01/16 09:27:38;;;;;;;5.90;3.60;;;;;;;1.80;100.00;97900.75;109265;1253;60265;-79
2024/01/16 09:30:07;;;;;;;6.90;4.20;;;;;;;1.82;100.00;97900.67;109492;1251;59092;-79
2024/01/16 09:32:35;;;;;;;5.40;3.50;;;;;;;1.78;100.00;97901.58;109364;1251;59413;-77
2024/01/16 09:35:04;;;;;;;6.50;4.50;;;;;;;1.73;100.00;97900.23;109488;1253;59025;-78
2024/01/16 09:37:31;;;;;;;8.50;4.90;;;;;;;1.65;100.00;97896.26;109285;1251;66742;-79
2024/01/16 09:40:00;;;;;;;7.40;4.80;;;;;;;1.57;100.00;97900.30;109469;1251;59976;-78
2024/01/16 09:42:27;;;;;;;9.30;4.60;;;;;;;1.52;100.00;97909.28;109417;1251;65048;-78
2024/01/16 09:44:56;;;;;;;8.10;5.30;;;;;;;1.48;100.00;97910.17;109475;1251;59125;-79
2024/01/16 09:47:25;;;;;;;7.20;4.90;;;;;;;1.51;100.00;97907.57;109481;1251;59312;-79
2024/01/16 09:49:54;;;;;;;6.80;5.10;;;;;;;1.57;100.00;97905.91;109508;1251;66941;-78
2024/01/16 09:52:20;;;;;;;8.20;5.10;;;;;;;1.56;100.00;97911.39;109509;1251;61157;-79
2024/01/16 09:54:48;;;;;;;6.60;4.30;;;;;;;1.57;100.00;97912.55;109499;1251;65123;-79
2024/01/16 09:57:18;;;;;;;8.60;4.90;;;;;;;1.60;100.00;97913.46;109498;1251;58961;-78
2024/01/16 09:59:45;;;;;;;;;;;;;;;1.59;100.00;97914.73;109447;1251;113961;-78
2024/01/16 10:02:13;;;;;;;9.20;4.50;;;;;;;1.56;100.00;97917.50;109489;1252;67002;-79
2024/01/16 10:04:41;;;;;;;8.90;5.30;;;;;;;1.60;100.00;97915.59;109510;1253;61013;-77
2024/01/16 10:07:11;;;;;;;10.00;4.90;;;;;;;1.68;100.00;97915.55;109500;1253;63955;-79
2024/01/16 10:09:38;;;;;;;6.30;4.00;;;;;;;1.76;100.00;97914.10;109492;1251;59034;-80
2024/01/16 10:12:06;;;;;;;8.50;4.70;;;;;;;1.80;100.00;97919.69;109561;1255;58896;-79
2024/01/16 10:14:33;;;;;;;6.80;4.50;;;;;;;1.82;100.00;97919.59;109206;1251;66840;-79
2024/01/16 10:17:15;;;;;;;8.00;4.80;;;;;;;1.90;100.00;97922.52;109419;1251;60098;-78
2024/01/16 10:19:53;;;;;;;5.20;3.80;;;;;;;2.06;100.00;97924.16;109476;1252;63827;-80
2024/01/16 10:22:21;;;;;;;7.40;4.50;;;;;;;2.15;100.00;97923.55;109479;1253;59017;-78
2024/01/16 10:24:48;;;;;;;6.90;4.60;;;;;;;2.26;100.00;97921.41;109504;1251;58980;-77
2024/01/16 10:27:19;;;;;;;6.30;4.40;;;;;;;2.31;100.00;97919.05;109530;1251;67058;-80
2024/01/16 10:29:57;;;;;;;5.50;3.20;;;;;;;2.24;100.00;97923.27;109496;1251;61286;-79
2024/01/16 10:32:31;;;;;;;4.50;2.60;;;;;;;2.15;100.00;97922.70;109487;1251;65094;-80
2024/01/16 10:35:17;;;;;;;6.10;3.20;;;;;;;2.15;100.00;97927.22;109448;1251;59197;-79
2024/01/16 10:37:53;;;;;;;4.10;3.40;;;;;;;2.28;100.00;97932.36;109513;1251;59059;-79
2024/01/16 10:40:22;;;;;;;4.20;2.90;;;;;;;2.37;100.00;97934.38;109511;1251;67166;-79
2024/01/16 10:43:06;;;;;;;6.10;3.10;;;;;;;2.42;100.00;97930.42;109499;1251;60108;-79
2024/01/16 10:45:33;;;;;;;5.90;3.30;;;;;;;2.44;100.00;97928.73;109503;1251;65037;-79
2024/01/16 10:48:04;;;;;;;4.90;3.50;;;;;;;2.42;100.00;97932.53;109482;1252;58942;-79
2024/01/16 10:50:35;;;;;;;7.20;3.80;;;;;;;2.43;100.00;97932.84;109493;1251;59847;-79
2024/01/16 10:53:08;;;;;;;4.70;2.80;;;;;;;2.45;100.00;97936.77;109457;1251;65993;-80
2024/01/16 10:55:48;;;;;;;5.50;3.30;;;;;;;2.54;100.00;97942.80;109536;1251;60219;-78
2024/01/16 10:58:16;;;;;;;5.00;3.20;;;;;;;2.71;100.00;97949.81;109505;1251;63980;-79
2024/01/16 11:00:51;;;;;;;6.80;3.20;;;;;;;2.94;100.00;97943.86;109492;1251;58997;-79
2024/01/16 11:03:27;;;;;;;5.00;3.60;;;;;;;3.19;100.00;97939.19;109525;1251;58913;-81
2024/01/16 11:05:57;;;;;;;5.40;3.60;;;;;;;3.49;100.00;97936.83;109511;1251;66997;-79
2024/01/16 11:08:30;;;;;;;4.10;3.30;;;;;;;3.69;100.00;97940.98;109406;1251;61549;-80
2024/01/16 11:10:59;;;;;;;4.30;3.30;;;;;;;3.69;100.00;97948.02;109268;1251;64259;-80
2024/01/16 11:13:26;;;;;;;5.90;3.40;;;;;;;3.49;100.00;97956.35;109456;1251;59281;-80
2024/01/16 11:15:53;;;;;;;4.60;3.00;;;;;;;3.43;100.00;97950.20;109452;1251;58997;-81
2024/01/16 11:18:20;;;;;;;4.80;3.10;;;;;;;3.55;100.00;97956.55;109477;1251;67096;-78